Time;durP1;ratioP1;P1;durP2;ratioP2;P2;SDS_P1;SDS_P2;PMS_P1;PMS_P2;Temp;Humidity;BMP_temperature;BMP_pressure;BME280_temperature;BME280_humidity;BME280_pressure;Samples;Min_cycle;Max_cycle;Signal;HPM_P1;HPM_P2
2021/12/22 00:00:00;;;;;;;49.25;21.27;;;;;;;-1.68;100.00;100949.97;5115545;28;20051;-51
2021/12/22 00:02:31;;;;;;;49.22;22.10;;;;;;;-1.64;100.00;100946.47;5115922;28;20051;-51
2021/12/22 00:04:59;;;;;;;49.30;19.85;;;;;;;-1.79;100.00;100951.75;5116300;28;20055;-51
2021/12/22 00:07:28;;;;;;;45.83;20.33;;;;;;;-1.84;100.00;100950.88;5115842;28;20062;-51
2021/12/22 00:09:56;;;;;;;56.75;24.00;;;;;;;-1.67;100.00;100933.47;5115459;28;20062;-51
2021/12/22 00:12:26;;;;;;;56.55;22.42;;;;;;;-1.63;100.00;100934.31;5115399;28;20104;-51
2021/12/22 00:14:54;;;;;;;58.80;23.55;;;;;;;-1.46;100.00;100918.59;5116251;28;20056;-51
2021/12/22 00:17:22;;;;;;;54.78;22.15;;;;;;;-1.61;100.00;100925.63;5116158;28;20067;-51
2021/12/22 00:19:50;;;;;;;47.00;20.90;;;;;;;-1.65;100.00;100939.50;5115513;28;20086;-51
2021/12/22 00:22:19;;;;;;;54.25;21.65;;;;;;;-1.59;100.00;100944.69;5115197;28;20055;-51
2021/12/22 00:24:47;;;;;;;52.80;22.48;;;;;;;-1.47;100.00;100942.91;5114934;28;20062;-51
2021/12/22 00:27:15;;;;;;;53.72;21.63;;;;;;;-1.56;100.00;100929.06;5115451;28;20055;-51
2021/12/22 00:29:49;;;;;;;56.58;22.80;;;;;;;-1.60;100.00;100927.34;5115478;28;20056;-51
2021/12/22 00:32:17;;;;;;;45.75;22.20;;;;;;;-1.55;100.00;100930.78;5116292;28;20056;-51
2021/12/22 00:34:50;;;;;;;54.38;22.27;;;;;;;-1.45;100.00;100922.94;5114780;28;20059;-50
2021/12/22 00:37:21;;;;;;;47.28;22.55;;;;;;;-1.48;100.00;100915.16;5115081;28;20051;-51
2021/12/22 00:39:51;;;;;;;61.33;24.80;;;;;;;-1.46;100.00;100924.69;5115563;28;20066;-51
2021/12/22 00:42:19;;;;;;;60.53;23.23;;;;;;;-1.50;100.00;100905.63;5115249;28;20491;-51
2021/12/22 00:44:53;;;;;;;47.95;21.73;;;;;;;-1.63;100.00;100906.56;5114779;28;20072;-51
2021/12/22 00:47:23;;;;;;;59.78;23.83;;;;;;;-1.60;100.00;100910.88;5114911;28;20059;-51
2021/12/22 00:49:52;;;;;;;55.65;22.83;;;;;;;-1.70;100.00;100913.53;5114554;28;20065;-51
2021/12/22 00:52:20;;;;;;;55.70;21.60;;;;;;;-1.77;100.00;100913.56;5114766;28;20509;-51
2021/12/22 00:54:48;;;;;;;52.35;23.02;;;;;;;-1.82;100.00;100905.78;5114480;28;20058;-51
2021/12/22 00:57:17;;;;;;;50.70;21.35;;;;;;;-1.90;100.00;100892.84;5114683;28;20056;-51
2021/12/22 00:59:46;;;;;;;60.38;23.27;;;;;;;-1.91;100.00;100895.44;5114587;28;20059;-51
2021/12/22 01:02:18;;;;;;;58.85;24.10;;;;;;;-1.94;100.00;100898.91;5114921;28;20051;-51
2021/12/22 01:04:47;;;;;;;57.85;22.77;;;;;;;-2.00;100.00;100892.88;5115233;28;20082;-51
2021/12/22 01:07:16;;;;;;;53.22;22.85;;;;;;;-1.94;100.00;100885.91;5115279;28;20059;-51
2021/12/22 01:09:45;;;;;;;61.70;23.35;;;;;;;-2.06;100.00;100879.03;5114840;28;20549;-51
2021/12/22 01:12:14;;;;;;;50.60;23.90;;;;;;;-2.22;100.00;100889.47;5114988;28;20176;-51
2021/12/22 01:14:43;;;;;;;67.50;23.60;;;;;;;-2.27;100.00;100892.97;5114233;28;20068;-51
2021/12/22 01:17:14;;;;;;;51.40;21.77;;;;;;;-2.23;100.00;100899.03;5114537;28;20538;-51
2021/12/22 01:19:51;;;;;;;62.17;23.45;;;;;;;-2.11;100.00;100895.53;5114202;28;20059;-51
2021/12/22 01:22:27;;;;;;;66.65;22.88;;;;;;;-2.25;100.00;100891.22;5114553;28;20063;-51
2021/12/22 01:25:07;;;;;;;47.58;21.15;;;;;;;-2.25;100.00;100888.63;5114129;28;20533;-51
2021/12/22 01:27:40;;;;;;;49.80;22.10;;;;;;;-2.33;100.00;100887.78;5115541;28;20387;-51
2021/12/22 01:30:11;;;;;;;54.40;24.25;;;;;;;-2.41;100.00;100881.75;5114409;28;20060;-51
2021/12/22 01:32:40;;;;;;;40.25;16.45;;;;;;;-2.31;100.00;100880.84;5114164;28;20051;-51
2021/12/22 01:35:12;;;;;;;50.40;22.25;;;;;;;-2.33;100.00;100877.41;5114285;28;20423;-51
2021/12/22 01:37:40;;;;;;;52.47;23.00;;;;;;;-2.25;100.00;100875.63;5114975;28;20165;-51
2021/12/22 01:40:11;;;;;;;50.58;21.67;;;;;;;-2.40;100.00;100875.69;5114526;28;20055;-51
2021/12/22 01:42:39;;;;;;;52.90;21.73;;;;;;;-2.46;100.00;100880.91;5114914;28;20056;-51
2021/12/22 01:45:26;;;;;;;60.65;22.48;;;;;;;-2.49;100.00;100883.50;5114854;28;20063;-51
2021/12/22 01:50:45;;;;;;;51.63;22.50;;;;;;;-2.45;100.00;100877.44;5113982;28;20071;-51
2021/12/22 01:53:32;;;;;;;55.10;23.25;;;;;;;-2.52;100.00;100875.72;5115420;28;20048;-51
2021/12/22 01:56:12;;;;;;;51.53;22.10;;;;;;;-2.63;100.00;100878.34;5116762;28;20058;-51
2021/12/22 01:58:43;;;;;;;46.28;21.30;;;;;;;-2.69;100.00;100868.84;5117820;28;20507;-51
2021/12/22 02:01:14;;;;;;;47.38;21.42;;;;;;;-2.74;100.00;100869.69;5118018;28;20059;-51
2021/12/22 02:03:44;;;;;;;54.28;21.52;;;;;;;-2.72;100.00;100863.66;5118272;28;20051;-51
2021/12/22 02:06:15;;;;;;;49.80;21.15;;;;;;;-2.75;100.00;100868.84;5118206;28;20085;-51
2021/12/22 02:08:45;;;;;;;45.75;20.70;;;;;;;-2.69;100.00;100870.56;5118803;28;20052;-51
2021/12/22 02:11:14;;;;;;;50.03;20.27;;;;;;;-2.69;100.00;100867.94;5117807;28;20051;-51
2021/12/22 02:13:47;;;;;;;52.25;22.52;;;;;;;-2.80;100.00;100870.59;5118225;28;20047;-51
2021/12/22 02:16:20;;;;;;;59.88;22.38;;;;;;;-2.71;100.00;100857.56;5117500;28;20051;-51
2021/12/22 02:18:52;;;;;;;64.95;25.35;;;;;;;-2.59;100.00;100850.63;5118325;28;20056;-51
2021/12/22 02:21:24;;;;;;;58.03;25.15;;;;;;;-2.63;100.00;100853.22;5117344;28;20098;-50
2021/12/22 02:23:53;;;;;;;56.63;22.75;;;;;;;-2.55;100.00;100849.75;5117350;28;20052;-51
2021/12/22 02:26:26;;;;;;;59.20;24.27;;;;;;;-2.54;100.00;100846.28;5117855;28;20051;-50
2021/12/22 02:29:00;;;;;;;57.10;23.48;;;;;;;-2.55;100.00;100849.75;5117543;28;20052;-51
2021/12/22 02:31:28;;;;;;;53.80;22.42;;;;;;;-2.58;100.00;100840.22;5117155;28;20062;-50
2021/12/22 02:33:58;;;;;;;50.55;22.67;;;;;;;-2.58;100.00;100860.16;5117148;28;20060;-51
2021/12/22 02:36:34;;;;;;;60.35;22.80;;;;;;;-2.65;100.00;100849.78;5117575;28;20403;-51
2021/12/22 02:39:04;;;;;;;63.05;22.52;;;;;;;-2.68;100.00;100848.91;5116989;28;20058;-51
2021/12/22 02:41:33;;;;;;;56.70;22.38;;;;;;;-2.67;100.00;100854.09;5117750;28;20062;-51
2021/12/22 02:44:01;;;;;;;54.50;22.67;;;;;;;-2.68;100.00;100856.72;5118116;28;20062;-51
2021/12/22 02:46:33;;;;;;;52.88;22.70;;;;;;;-2.63;100.00;100854.97;5117123;28;20073;-50
2021/12/22 02:49:03;;;;;;;49.53;18.90;;;;;;;-2.74;100.00;100854.13;5118340;28;20056;-50
2021/12/22 02:51:33;;;;;;;56.88;23.67;;;;;;;-2.75;100.00;100848.06;5117133;28;20052;-51
2021/12/22 02:54:07;;;;;;;50.00;21.67;;;;;;;-2.86;100.00;100849.81;5118185;28;20058;-51
2021/12/22 02:56:50;;;;;;;55.63;22.00;;;;;;;-2.93;100.00;100853.28;5117439;28;20056;-51
2021/12/22 02:59:38;;;;;;;60.55;24.70;;;;;;;-2.96;100.00;100853.28;5117790;28;20063;-51
2021/12/22 03:04:58;;;;;;;51.77;22.90;;;;;;;-2.91;100.00;100846.34;5110975;28;20059;-51
2021/12/22 03:07:30;;;;;;;57.58;23.67;;;;;;;-3.06;100.00;100850.72;5116636;28;20055;-51
2021/12/22 03:10:00;;;;;;;52.78;23.88;;;;;;;-3.08;100.00;100849.81;5116451;28;20058;-51
2021/12/22 03:12:33;;;;;;;55.35;23.52;;;;;;;-3.13;100.00;100850.69;5117531;28;20396;-50
2021/12/22 03:15:02;;;;;;;66.03;23.15;;;;;;;-3.12;100.00;100842.91;5117319;28;20052;-51
2021/12/22 03:17:30;;;;;;;55.40;24.35;;;;;;;-3.18;100.00;100836.00;5117126;28;20067;-51
2021/12/22 03:19:58;;;;;;;59.95;24.10;;;;;;;-3.17;100.00;100836.88;5116965;28;20051;-51
2021/12/22 03:22:29;;;;;;;51.05;23.40;;;;;;;-3.19;100.00;100833.41;5116316;28;20064;-51
2021/12/22 03:24:57;;;;;;;54.65;23.00;;;;;;;-3.11;100.00;100842.06;5116959;28;20054;-51
2021/12/22 03:27:25;;;;;;;54.92;23.13;;;;;;;-3.12;100.00;100837.72;5116624;28;20146;-51
2021/12/22 03:29:54;;;;;;;52.95;22.48;;;;;;;-3.09;100.00;100837.72;5116549;28;20411;-51
2021/12/22 03:32:22;;;;;;;53.00;23.75;;;;;;;-3.21;100.00;100832.53;5116219;28;20507;-51
2021/12/22 03:34:51;;;;;;;58.38;23.65;;;;;;;-3.30;100.00;100832.53;5115940;28;20056;-51
2021/12/22 03:37:19;;;;;;;47.92;21.05;;;;;;;-3.36;100.00;100823.91;5116151;28;20052;-51
2021/12/22 03:39:48;;;;;;;61.20;24.67;;;;;;;-3.31;100.00;100820.41;5116083;28;20051;-50
2021/12/22 03:42:17;;;;;;;59.90;23.65;;;;;;;-3.44;100.00;100824.78;5116243;28;20055;-51
2021/12/22 03:44:45;;;;;;;57.53;23.70;;;;;;;-3.47;100.00;100812.66;5116294;28;20418;-51
2021/12/22 03:47:14;;;;;;;50.78;23.23;;;;;;;-3.46;100.00;100821.28;5115956;28;20055;-51
2021/12/22 03:49:42;;;;;;;49.28;21.20;;;;;;;-3.56;100.00;100815.25;5116214;28;20486;-51
2021/12/22 03:52:12;;;;;;;55.30;22.60;;;;;;;-3.60;100.00;100813.50;5115867;28;20055;-51
2021/12/22 03:54:40;;;;;;;58.13;22.38;;;;;;;-3.70;100.00;100807.44;5116438;28;20055;-51
2021/12/22 03:57:10;;;;;;;60.72;22.10;;;;;;;-3.70;100.00;100811.75;5115766;28;20054;-51
2021/12/22 03:59:38;;;;;;;48.65;22.00;;;;;;;-3.67;100.00;100816.97;5116752;28;20055;-51
2021/12/22 04:02:06;;;;;;;49.38;22.05;;;;;;;-3.68;100.00;100816.09;5116486;28;20232;-51
2021/12/22 04:04:35;;;;;;;54.25;21.40;;;;;;;-3.67;100.00;100822.16;5115390;28;20059;-51
2021/12/22 04:07:03;;;;;;;53.67;21.75;;;;;;;-3.75;100.00;100820.41;5115542;28;20052;-51
2021/12/22 04:09:32;;;;;;;44.75;21.45;;;;;;;-3.78;100.00;100820.41;5115551;28;20533;-51
2021/12/22 04:12:00;;;;;;;50.90;21.90;;;;;;;-3.85;100.00;100810.00;5115428;28;20060;-51
2021/12/22 04:14:29;;;;;;;47.28;20.67;;;;;;;-3.87;100.00;100810.00;5115121;28;20056;-51
2021/12/22 04:16:57;;;;;;;55.20;21.55;;;;;;;-3.92;100.00;100815.19;5115692;28;20051;-51
2021/12/22 04:19:26;;;;;;;55.00;20.60;;;;;;;-3.95;100.00;100819.47;5115566;28;20059;-51
2021/12/22 04:21:54;;;;;;;53.85;22.25;;;;;;;-3.89;100.00;100814.31;5115240;28;20056;-51
2021/12/22 04:24:23;;;;;;;52.30;23.63;;;;;;;-3.87;100.00;100815.19;5115014;28;20541;-51
2021/12/22 04:26:51;;;;;;;59.70;22.83;;;;;;;-3.87;100.00;100804.81;5115509;28;20062;-51
2021/12/22 04:29:19;;;;;;;57.35;23.63;;;;;;;-3.87;100.00;100798.78;5116304;28;20051;-51
2021/12/22 04:31:49;;;;;;;62.33;22.55;;;;;;;-3.91;100.00;100790.13;5115120;28;20060;-51
2021/12/22 04:34:17;;;;;;;58.20;24.20;;;;;;;-3.91;100.00;100792.72;5116080;28;20058;-51
2021/12/22 04:36:46;;;;;;;61.20;23.35;;;;;;;-3.81;100.00;100789.28;5115052;28;20059;-51
2021/12/22 04:39:14;;;;;;;70.38;25.88;;;;;;;-3.75;100.00;100788.41;5115262;28;20059;-51
2021/12/22 04:41:42;;;;;;;72.50;25.55;;;;;;;-3.65;100.00;100794.47;5115190;28;20051;-50
2021/12/22 04:44:10;;;;;;;67.30;25.15;;;;;;;-3.64;100.00;100793.63;5115634;28;20062;-51
2021/12/22 04:46:40;;;;;;;67.85;23.67;;;;;;;-3.65;100.00;100797.06;5114894;28;20463;-51
2021/12/22 04:49:10;;;;;;;66.22;26.45;;;;;;;-3.70;100.00;100798.81;5114828;28;20063;-50
2021/12/22 04:51:47;;;;;;;69.78;26.90;;;;;;;-3.78;100.00;100797.06;5114775;28;20059;-51
2021/12/22 04:54:19;;;;;;;66.43;23.40;;;;;;;-3.79;100.00;100803.09;5115396;28;20086;-51
2021/12/22 04:56:47;;;;;;;60.58;24.02;;;;;;;-3.79;100.00;100807.44;5115665;28;20063;-51
2021/12/22 04:59:16;;;;;;;63.85;24.65;;;;;;;-3.80;100.00;100804.00;5115019;28;20064;-51
2021/12/22 05:01:44;;;;;;;52.78;22.77;;;;;;;-3.85;100.00;100808.31;5114857;28;20059;-51
2021/12/22 05:04:14;;;;;;;53.63;22.92;;;;;;;-3.89;100.00;100801.38;5115321;28;20139;-51
2021/12/22 05:06:42;;;;;;;59.45;23.77;;;;;;;-3.94;100.00;100797.91;5115748;28;20056;-51
2021/12/22 05:09:10;;;;;;;55.25;22.67;;;;;;;-3.91;100.00;100803.09;5114584;28;20525;-51
2021/12/22 05:11:40;;;;;;;53.35;22.00;;;;;;;-3.92;100.00;100798.75;5114881;28;20055;-51
2021/12/22 05:14:09;;;;;;;56.78;23.70;;;;;;;-3.89;100.00;100791.00;5114298;28;20055;-50
2021/12/22 05:16:44;;;;;;;59.03;23.65;;;;;;;-3.95;100.00;100793.56;5114825;28;20056;-51
2021/12/22 05:19:15;;;;;;;51.13;21.33;;;;;;;-3.99;100.00;100786.66;5114873;28;20053;-51
2021/12/22 05:21:43;;;;;;;56.83;22.13;;;;;;;-3.99;100.00;100791.84;5115593;28;20055;-50
2021/12/22 05:24:12;;;;;;;54.28;23.10;;;;;;;-4.03;100.00;100783.19;5114232;28;20058;-51
2021/12/22 05:26:40;;;;;;;58.88;22.83;;;;;;;-4.00;100.00;100790.09;5114707;28;20058;-51
2021/12/22 05:29:08;;;;;;;52.28;22.58;;;;;;;-3.97;100.00;100792.72;5114953;28;20071;-51
2021/12/22 05:31:37;;;;;;;54.60;23.55;;;;;;;-3.96;100.00;100786.69;5118689;28;20063;-51
2021/12/22 05:34:05;;;;;;;57.55;22.23;;;;;;;-3.92;100.00;100780.63;5119744;28;20052;-51
2021/12/22 05:36:35;;;;;;;58.63;22.52;;;;;;;-3.90;100.00;100788.41;5119651;28;20398;-50
2021/12/22 05:39:03;;;;;;;50.97;20.35;;;;;;;-3.87;100.00;100781.50;5118488;28;20063;-51
2021/12/22 05:41:32;;;;;;;65.63;22.48;;;;;;;-3.78;100.00;100785.84;5118377;28;20063;-50
2021/12/22 05:44:00;;;;;;;51.85;21.35;;;;;;;-3.78;100.00;100786.69;5119337;28;20059;-51
2021/12/22 05:46:29;;;;;;;59.30;23.63;;;;;;;-3.78;100.00;100784.09;5118890;28;20109;-50
2021/12/22 05:48:57;;;;;;;56.58;23.23;;;;;;;-3.72;100.00;100803.13;5118538;28;20059;-51
2021/12/22 05:51:27;;;;;;;47.55;20.13;;;;;;;-3.65;100.00;100794.47;5118203;28;20063;-51
2021/12/22 05:53:57;;;;;;;49.45;22.15;;;;;;;-3.72;100.00;100793.59;5119103;28;20056;-51
2021/12/22 05:56:26;;;;;;;55.50;22.08;;;;;;;-3.61;100.00;100796.22;5118967;28;20403;-51
2021/12/22 05:58:55;;;;;;;49.22;21.30;;;;;;;-3.53;100.00;100796.22;5118379;28;20056;-51
2021/12/22 06:01:23;;;;;;;48.88;21.23;;;;;;;-3.58;100.00;100793.63;5118008;28;20055;-50
2021/12/22 06:03:52;;;;;;;53.35;22.48;;;;;;;-3.53;100.00;100797.09;5118578;28;20055;-51
2021/12/22 06:06:20;;;;;;;51.60;21.08;;;;;;;-3.44;100.00;100804.88;5117912;28;20056;-51
2021/12/22 06:08:48;;;;;;;58.40;23.77;;;;;;;-3.35;100.00;100793.63;5118166;28;20058;-51
2021/12/22 06:11:18;;;;;;;56.92;22.05;;;;;;;-3.27;100.00;100796.22;5118170;28;20056;-51
2021/12/22 06:13:46;;;;;;;51.50;22.95;;;;;;;-3.18;100.00;100783.22;5117897;28;20060;-51
2021/12/22 06:16:14;;;;;;;47.70;21.85;;;;;;;-3.23;100.00;100787.56;5117743;28;20052;-51
2021/12/22 06:18:44;;;;;;;51.42;21.73;;;;;;;-3.24;100.00;100785.84;5118320;28;20124;-51
2021/12/22 06:21:13;;;;;;;42.17;19.27;;;;;;;-3.13;100.00;100789.28;5118204;28;20067;-51
2021/12/22 06:23:42;;;;;;;44.15;20.52;;;;;;;-3.06;100.00;100792.72;5117879;28;20055;-51
2021/12/22 06:26:10;;;;;;;47.97;20.52;;;;;;;-3.06;100.00;100793.59;5117832;28;20066;-50
2021/12/22 06:28:40;;;;;;;46.28;19.63;;;;;;;-2.91;100.00;100786.63;5117786;28;20055;-50
2021/12/22 06:31:08;;;;;;;50.17;19.55;;;;;;;-2.92;100.00;100779.75;5118051;28;20060;-50
2021/12/22 06:33:36;;;;;;;40.58;18.52;;;;;;;-2.91;100.00;100774.50;5118638;28;20134;-50
2021/12/22 06:36:05;;;;;;;41.45;19.00;;;;;;;-2.96;100.00;100771.06;5116531;28;20062;-51
2021/12/22 06:38:33;;;;;;;46.17;19.15;;;;;;;-2.97;100.00;100773.69;5116092;28;20059;-50
2021/12/22 06:41:02;;;;;;;46.25;19.95;;;;;;;-2.97;100.00;100766.75;5115944;28;20086;-50
2021/12/22 06:43:31;;;;;;;36.20;17.25;;;;;;;-3.08;100.00;100766.75;5117162;28;20064;-51
2021/12/22 06:46:01;;;;;;;38.45;18.63;;;;;;;-3.13;100.00;100767.66;5116862;28;20063;-51
2021/12/22 06:48:29;;;;;;;35.90;16.52;;;;;;;-3.15;100.00;100767.66;5116657;28;20112;-51
2021/12/22 06:50:58;;;;;;;42.15;18.58;;;;;;;-3.17;100.00;100762.47;5116665;28;20059;-50
2021/12/22 06:53:26;;;;;;;40.15;17.48;;;;;;;-3.21;100.00;100771.13;5116917;28;20056;-50
2021/12/22 06:55:54;;;;;;;39.63;17.35;;;;;;;-3.29;100.00;100770.28;5116399;28;20061;-51
2021/12/22 06:58:22;;;;;;;42.95;17.85;;;;;;;-3.37;100.00;100775.47;5116736;28;20060;-51
2021/12/22 07:00:51;;;;;;;42.63;17.77;;;;;;;-3.25;100.00;100784.09;5116677;28;20056;-51
2021/12/22 07:03:20;;;;;;;39.08;18.10;;;;;;;-3.18;100.00;100786.72;5116463;28;20132;-50
2021/12/22 07:05:48;;;;;;;40.55;18.35;;;;;;;-3.15;100.00;100795.34;5117257;28;20063;-50
2021/12/22 07:08:17;;;;;;;42.70;18.73;;;;;;;-3.26;100.00;100793.63;5116667;28;20082;-50
2021/12/22 07:10:45;;;;;;;39.80;17.67;;;;;;;-3.25;100.00;100784.09;5116660;28;20055;-51
2021/12/22 07:13:14;;;;;;;35.25;17.42;;;;;;;-3.12;100.00;100779.78;5116953;28;20055;-50
2021/12/22 07:15:43;;;;;;;39.92;17.48;;;;;;;-3.02;100.00;100769.38;5117117;28;20487;-50
2021/12/22 07:18:12;;;;;;;41.58;17.35;;;;;;;-3.03;100.00;100765.03;5116535;28;20059;-50
2021/12/22 07:20:42;;;;;;;39.72;18.42;;;;;;;-3.01;100.00;100768.50;5116341;28;20082;-50
2021/12/22 07:23:10;;;;;;;35.60;17.55;;;;;;;-3.05;100.00;100761.56;5116692;28;20055;-50
2021/12/22 07:25:39;;;;;;;45.22;18.33;;;;;;;-3.12;100.00;100765.06;5117260;28;20059;-51
2021/12/22 07:28:08;;;;;;;43.55;18.50;;;;;;;-3.09;100.00;100765.06;5117291;28;20063;-50
2021/12/22 07:30:36;;;;;;;39.28;18.00;;;;;;;-3.05;100.00;100765.91;5115870;28;20060;-50
2021/12/22 07:33:05;;;;;;;39.03;16.90;;;;;;;-3.06;100.00;100775.44;5116589;28;20403;-50
2021/12/22 07:35:38;;;;;;;35.70;16.35;;;;;;;-3.10;100.00;100778.03;5115975;28;20510;-50
2021/12/22 07:38:29;;;;;;;43.05;18.42;;;;;;;-3.23;100.00;100764.19;5116545;28;20064;-50
2021/12/22 07:40:59;;;;;;;42.05;17.20;;;;;;;-3.20;100.00;100777.19;5114701;28;20135;-51
2021/12/22 07:43:28;;;;;;;35.75;18.08;;;;;;;-3.20;100.00;100772.84;5115271;28;20533;-51
2021/12/22 07:45:57;;;;;;;37.65;17.20;;;;;;;-3.07;100.00;100784.09;5116230;28;20056;-51
2021/12/22 07:48:26;;;;;;;35.72;16.55;;;;;;;-3.06;100.00;100782.34;5116259;28;20134;-51
2021/12/22 07:50:57;;;;;;;55.90;19.50;;;;;;;-3.12;100.00;100785.81;5115123;28;20132;-51
2021/12/22 07:53:28;;;;;;;39.20;17.52;;;;;;;-3.17;100.00;100774.59;5115451;28;20526;-51
2021/12/22 07:55:56;;;;;;;40.85;17.48;;;;;;;-3.15;100.00;100765.06;5116958;28;20051;-51
2021/12/22 07:58:25;;;;;;;42.95;18.08;;;;;;;-3.04;100.00;100762.47;5116043;28;20067;-50
2021/12/22 08:00:55;;;;;;;39.70;17.48;;;;;;;-2.99;100.00;100764.16;5115908;28;20055;-51
2021/12/22 08:03:24;;;;;;;38.13;17.83;;;;;;;-3.01;100.00;100771.09;5115811;28;20545;-50
2021/12/22 08:06:12;;;;;;;38.53;16.33;;;;;;;-2.95;100.00;100762.44;5114873;28;20104;-51
2021/12/22 08:08:42;;;;;;;41.03;18.02;;;;;;;-2.80;100.00;100780.56;5115406;28;20085;-51
2021/12/22 08:11:10;;;;;;;45.75;18.92;;;;;;;-2.77;100.00;100769.31;5115755;28;20052;-51
2021/12/22 08:13:38;;;;;;;40.83;17.50;;;;;;;-2.73;100.00;100784.00;5115204;28;20074;-50
2021/12/22 08:16:07;;;;;;;41.67;19.55;;;;;;;-2.70;100.00;100768.41;5115014;28;20131;-51
2021/12/22 08:18:35;;;;;;;36.80;16.77;;;;;;;-2.66;100.00;100767.50;5115540;28;20117;-51
2021/12/22 08:21:03;;;;;;;36.00;16.40;;;;;;;-2.55;100.00;100775.28;5115154;28;20051;-50
2021/12/22 08:23:35;;;;;;;38.47;18.05;;;;;;;-2.46;100.00;100774.38;5114514;28;20577;-51
2021/12/22 08:26:05;;;;;;;36.42;17.85;;;;;;;-2.41;100.00;100767.41;5115254;28;20056;-51
2021/12/22 08:28:33;;;;;;;38.42;17.13;;;;;;;-2.40;100.00;100771.75;5114390;28;20054;-50
2021/12/22 08:31:01;;;;;;;38.40;17.63;;;;;;;-2.32;100.00;100764.78;5114402;28;20056;-51
2021/12/22 08:33:32;;;;;;;36.70;16.63;;;;;;;-2.22;100.00;100760.38;5114881;28;20070;-50
2021/12/22 08:38:54;;;;;;;35.00;17.02;;;;;;;-2.11;100.00;100771.59;5114869;28;20052;-51
2021/12/22 08:41:26;;;;;;;32.67;16.48;;;;;;;-1.99;100.00;100778.47;5094506;28;20056;-51
2021/12/22 08:43:55;;;;;;;;;;;;;;;-1.97;100.00;100771.50;5095407;28;20055;-51
2021/12/22 08:46:23;;;;;;;37.40;16.85;;;;;;;-1.84;100.00;100755.84;5094416;28;19928;-51
2021/12/22 08:48:51;;;;;;;54.03;23.67;;;;;;;-1.69;100.00;100760.94;5094391;28;20062;-50
2021/12/22 08:51:21;;;;;;;86.20;36.30;;;;;;;-1.56;100.00;100746.94;5094377;28;20063;-51
2021/12/22 08:53:49;;;;;;;51.17;26.77;;;;;;;-1.31;100.00;100757.16;5094971;28;20059;-51
2021/12/22 08:56:17;;;;;;;34.45;16.80;;;;;;;-1.23;100.00;100755.31;5094863;28;20056;-51
2021/12/22 08:58:47;;;;;;;30.70;15.15;;;;;;;-1.11;100.00;100762.13;5094639;28;20407;-51
2021/12/22 09:01:16;;;;;;;33.70;15.43;;;;;;;-1.04;100.00;100765.53;5094806;28;20060;-51
2021/12/22 09:03:44;;;;;;;33.80;17.05;;;;;;;-0.98;100.00;100755.06;5093841;28;20059;-51
2021/12/22 09:06:13;;;;;;;32.90;15.25;;;;;;;-0.90;100.00;100757.59;5094087;28;20130;-51
2021/12/22 09:08:41;;;;;;;28.17;15.02;;;;;;;-0.86;100.00;100743.66;5095386;28;20373;-51
2021/12/22 09:11:11;;;;;;;26.13;14.55;;;;;;;-0.83;100.00;100744.47;5094732;28;20438;-51
2021/12/22 09:13:40;;;;;;;31.40;15.70;;;;;;;-0.90;100.00;100742.84;5093939;28;20066;-51
2021/12/22 09:16:11;;;;;;;34.00;15.27;;;;;;;-0.96;100.00;100735.97;5095292;28;20060;-51
2021/12/22 09:18:39;;;;;;;39.28;17.52;;;;;;;-1.06;100.00;100736.94;5093915;28;20060;-51
2021/12/22 09:21:09;;;;;;;31.08;15.95;;;;;;;-0.90;100.00;100741.97;5094419;28;20495;-51
2021/12/22 09:23:38;;;;;;;33.33;17.23;;;;;;;-0.73;100.00;100733.97;5094132;28;20056;-51
2021/12/22 09:26:07;;;;;;;36.00;15.93;;;;;;;-0.72;100.00;100730.47;5094658;28;20515;-51
2021/12/22 09:28:36;;;;;;;32.65;15.25;;;;;;;-0.64;99.71;100733.84;5094373;28;20060;-51
2021/12/22 09:31:05;;;;;;;32.20;16.27;;;;;;;-0.50;98.37;100734.53;5094272;28;20052;-51
2021/12/22 09:33:36;;;;;;;31.80;14.98;;;;;;;-0.35;97.21;100730.00;5094614;28;20056;-51
2021/12/22 09:36:06;;;;;;;29.38;15.00;;;;;;;-0.33;97.66;100728.25;5094034;28;20526;-51
2021/12/22 09:38:35;;;;;;;31.38;15.18;;;;;;;-0.13;96.68;100726.22;5094579;28;20052;-51
2021/12/22 09:41:04;;;;;;;31.67;16.20;;;;;;;0.07;95.71;100722.44;5094985;28;20399;-51
2021/12/22 09:43:32;;;;;;;31.63;15.48;;;;;;;0.26;94.86;100720.41;5094529;28;20209;-51
2021/12/22 09:46:04;;;;;;;33.88;15.57;;;;;;;0.54;94.26;100715.59;5093636;28;20068;-52
2021/12/22 09:48:47;;;;;;;29.38;14.65;;;;;;;0.74;91.57;100710.88;5094790;28;20052;-51
2021/12/22 09:54:05;;;;;;;28.73;14.00;;;;;;;1.52;86.19;100718.06;5093571;28;20070;-51
2021/12/22 09:56:34;;;;;;;26.25;13.90;;;;;;;1.79;85.52;100708.72;5094037;28;20058;-51
2021/12/22 09:59:02;;;;;;;25.75;13.95;;;;;;;2.14;83.45;100712.28;5094341;28;20056;-51
2021/12/22 10:01:31;;;;;;;41.05;19.23;;;;;;;2.41;83.13;100702.88;5093973;28;20147;-51
2021/12/22 10:04:01;;;;;;;28.58;15.60;;;;;;;2.75;79.63;100712.50;5093420;28;20052;-51
2021/12/22 10:06:30;;;;;;;23.63;13.68;;;;;;;2.69;77.16;100715.28;5094005;28;20052;-51
2021/12/22 10:09:02;;;;;;;21.75;11.98;;;;;;;2.55;78.34;100699.91;5093700;28;20105;-51
2021/12/22 10:11:33;;;;;;;24.13;13.52;;;;;;;2.69;77.00;100688.22;5093422;28;20508;-50
2021/12/22 10:14:01;;;;;;;29.33;14.70;;;;;;;2.81;77.48;100706.25;5093337;28;20056;-51
2021/12/22 10:16:30;;;;;;;33.05;17.33;;;;;;;3.03;76.39;100693.41;5095662;28;20151;-51
2021/12/22 10:19:06;;;;;;;26.67;14.35;;;;;;;3.09;75.93;100701.13;5097292;28;20139;-51
2021/12/22 10:21:43;;;;;;;24.75;12.75;;;;;;;3.47;74.82;100709.63;5098436;28;20436;-51
2021/12/22 10:24:11;;;;;;;23.88;12.73;;;;;;;3.38;73.40;100696.78;5096617;28;20075;-51
2021/12/22 10:26:40;;;;;;;23.45;13.85;;;;;;;3.35;73.38;100705.59;5097489;28;20048;-51
2021/12/22 10:29:09;;;;;;;24.73;14.48;;;;;;;3.33;73.90;100715.28;5097380;28;20052;-51
2021/12/22 10:31:40;;;;;;;26.75;13.57;;;;;;;3.19;74.55;100706.94;5098233;28;20374;-51
2021/12/22 10:34:11;;;;;;;26.38;14.63;;;;;;;2.88;76.24;100720.91;5097701;28;20431;-51
2021/12/22 10:36:48;;;;;;;25.92;14.38;;;;;;;3.20;75.71;100713.06;5096690;28;20059;-51
2021/12/22 10:39:22;;;;;;;25.02;13.88;;;;;;;3.54;74.57;100718.16;5097562;28;20056;-51
2021/12/22 10:41:51;;;;;;;29.35;13.30;;;;;;;3.64;73.70;100724.84;5096998;28;20107;-51
2021/12/22 10:44:20;;;;;;;24.50;13.30;;;;;;;3.77;73.29;100719.25;5097153;28;20395;-51
2021/12/22 10:46:48;;;;;;;24.92;13.50;;;;;;;3.74;72.32;100735.09;5097058;28;20051;-51
2021/12/22 10:49:21;;;;;;;27.35;13.50;;;;;;;3.29;74.27;100711.00;5097070;28;20087;-51
2021/12/22 10:52:00;;;;;;;22.30;13.10;;;;;;;3.40;75.03;100710.72;5097330;28;20140;-50
2021/12/22 10:54:35;;;;;;;28.83;13.95;;;;;;;3.53;74.09;100708.56;5097714;28;20060;-51
2021/12/22 10:57:10;;;;;;;23.30;13.18;;;;;;;3.66;73.92;100707.28;5096941;28;20056;-50
2021/12/22 10:59:42;;;;;;;27.17;13.30;;;;;;;3.93;73.54;100704.72;5096307;28;20056;-51
2021/12/22 11:02:11;;;;;;;27.23;14.77;;;;;;;3.84;72.00;100694.53;5096513;28;20056;-51
2021/12/22 11:04:44;;;;;;;33.45;15.85;;;;;;;4.03;72.18;100697.44;5097155;28;20139;-51
2021/12/22 11:07:22;;;;;;;28.70;14.90;;;;;;;3.96;71.79;100694.13;5096127;28;20134;-51
2021/12/22 11:09:50;;;;;;;25.38;14.70;;;;;;;4.17;71.62;100678.59;5096448;28;20059;-51
2021/12/22 11:12:19;;;;;;;24.45;13.20;;;;;;;4.23;70.56;100673.16;5097397;28;20048;-50
2021/12/22 11:14:48;;;;;;;24.38;14.90;;;;;;;4.17;71.13;100673.34;5097481;28;20063;-51
2021/12/22 11:17:18;;;;;;;25.98;13.95;;;;;;;4.08;71.66;100667.53;5096161;28;20052;-51
2021/12/22 11:19:56;;;;;;;23.50;14.40;;;;;;;3.56;74.36;100663.03;5096850;28;20423;-51
2021/12/22 11:22:39;;;;;;;26.55;15.05;;;;;;;3.62;73.96;100661.09;5097292;28;20067;-50
2021/12/22 11:25:11;;;;;;;25.63;14.05;;;;;;;3.52;73.59;100662.28;5096479;28;20087;-51
2021/12/22 11:27:42;;;;;;;27.02;14.73;;;;;;;3.16;75.54;100650.22;5096542;28;20109;-51